Diplomat, Indiana
Current Conditions -  °F | °C
As of 11:54 AM on Sunday 23 Nov 2014 (Local Time) from KFWA Reporting Station
Overcast Overcast  
Wind Chill: 54°   Ceiling: 20000
Heat Index: 54°   Visibility: 10mi
Dew Point: 46°   Wind: 10mph
Humidity: 75%   Direction: 150°SSE
Pressure: 29.81"   Gusts: NA
Location:  41.0028°N, 85.0396°W
Report Text: KFWA 231654Z 15009KT 10SM FEW090 SCT120 OVC200 12/08 A2981 RMK AO2 PRESFR SLP096 T01220078
Loading
Personal Weather Stations






























Interactive Weather Map New forecast layout! Learn more

10-Day Weather Forecast

Advertisements
Track Severe Weather on mobile